Time;durP1;ratioP1;P1;durP2;ratioP2;P2;SDS_P1;SDS_P2;PMS_P1;PMS_P2;Temp;Humidity;BMP_temperature;BMP_pressure;BME280_temperature;BME280_humidity;BME280_pressure;Samples;Min_cycle;Max_cycle;Signal;HPM_P1;HPM_P2
2021/09/20 00:01:06;;;;;;;;;;;;;;;28.79;41.78;100388.47;5136676;28;918;-35
2021/09/20 00:03:31;;;;;;;;;;;;;;;28.68;42.55;100387.19;5136331;28;830;-36
2021/09/20 00:05:56;;;;;;;;;;;;;;;28.67;43.19;100385.53;5136636;28;957;-34
2021/09/20 00:08:22;;;;;;;;;;;;;;;28.82;42.12;100388.06;5135931;28;1009;-33
2021/09/20 00:10:47;;;;;;;;;;;;;;;28.77;42.56;100379.72;5136711;28;834;-40
2021/09/20 00:13:12;;;;;;;;;;;;;;;28.65;42.74;100387.59;5137695;27;728;-33
2021/09/20 00:15:38;;;;;;;;;;;;;;;28.61;42.41;100381.75;5140757;27;874;-35
2021/09/20 00:18:03;;;;;;;;;;;;;;;28.68;42.62;100382.59;5140969;27;755;-36
2021/09/20 00:20:28;;;;;;;;;;;;;;;28.80;42.10;100384.72;5140477;27;1905;-40
2021/09/20 00:22:53;;;;;;;;;;;;;;;28.72;42.92;100391.16;5139105;27;1609;-34
2021/09/20 00:25:19;;;;;;;;;;;;;;;28.62;43.41;100393.41;5140384;27;831;-34
2021/09/20 00:27:44;;;;;;;;;;;;;;;28.76;42.44;100388.88;5139995;27;819;-35
2021/09/20 00:30:10;;;;;;;;;;;;;;;28.74;42.51;100383.69;5140795;27;803;-35
2021/09/20 00:32:35;;;;;;;;;;;;;;;28.64;43.04;100384.06;5140080;27;1471;-35
2021/09/20 00:35:00;;;;;;;;;;;;;;;28.72;42.86;100386.59;5139726;27;741;-35
2021/09/20 00:37:26;;;;;;;;;;;;;;;28.54;43.98;100386.31;5139503;27;930;-35
2021/09/20 00:39:51;;;;;;;;;;;;;;;28.75;42.81;100389.91;5159375;27;1886;-31
2021/09/20 00:42:16;;;;;;;;;;;;;;;28.70;42.91;100387.81;5160875;27;882;-32
2021/09/20 00:44:41;;;;;;;;;;;;;;;28.65;43.48;100390.28;5160824;27;786;-41
2021/09/20 00:47:07;;;;;;;;;;;;;;;28.71;42.64;100387.63;5160207;27;813;-33
2021/09/20 00:49:32;;;;;;;;;;;;;;;28.66;43.22;100395.50;5160383;27;1096;-33
2021/09/20 00:51:57;;;;;;;;;;;;;;;28.82;42.61;100393.47;5150906;27;1020;-36
2021/09/20 00:54:22;;;;;;;;;;;;;;;28.80;42.66;100392.84;5139578;27;753;-35
2021/09/20 00:56:48;;;;;;;;;;;;;;;28.70;42.87;100385.94;5121100;27;851;-39
2021/09/20 00:59:13;;;;;;;;;;;;;;;28.66;43.09;100381.97;5121316;27;1906;-35
2021/09/20 01:01:38;;;;;;;;;;;;;;;28.53;44.23;100384.66;5139279;27;751;-38
2021/09/20 01:04:04;;;;;;;;;;;;;;;28.69;43.19;100372.63;5121585;27;787;-35
2021/09/20 01:06:29;;;;;;;;;;;;;;;28.66;43.41;100370.31;5139387;27;950;-37
2021/09/20 01:08:54;;;;;;;;;;;;;;;28.66;43.45;100365.72;5139493;27;755;-31
2021/09/20 01:11:19;;;;;;;;;;;;;;;28.79;42.96;100364.13;5139540;27;826;-35
2021/09/20 01:13:45;;;;;;;;;;;;;;;28.63;43.94;100368.03;5121324;27;767;-36
2021/09/20 01:16:10;;;;;;;;;;;;;;;28.78;42.93;100382.22;5139163;27;858;-33
2021/09/20 01:18:35;;;;;;;;;;;;;;;28.87;42.91;100374.75;5138974;27;1906;-34
2021/09/20 01:21:01;;;;;;;;;;;;;;;28.75;43.40;100374.50;5138781;27;1594;-33
2021/09/20 01:23:26;;;;;;;;;;;;;;;28.70;42.96;100377.00;5138661;27;993;-32
2021/09/20 01:25:51;;;;;;;;;;;;;;;28.81;42.71;100389.94;5138779;27;759;-34
2021/09/20 01:28:16;;;;;;;;;;;;;;;28.79;42.73;100381.19;5139070;27;777;-41
2021/09/20 01:30:42;;;;;;;;;;;;;;;28.69;42.68;100384.28;5139423;27;767;-41
2021/09/20 01:33:07;;;;;;;;;;;;;;;28.60;43.66;100380.94;5139051;27;882;-35
2021/09/20 01:35:32;;;;;;;;;;;;;;;28.69;42.78;100381.59;5139094;27;832;-34
2021/09/20 01:37:57;;;;;;;;;;;;;;;28.63;43.11;100381.56;5141662;27;1008;-39
2021/09/20 01:40:23;;;;;;;;;;;;;;;28.65;43.11;100388.44;5159301;27;1905;-35
2021/09/20 01:42:48;;;;;;;;;;;;;;;28.75;42.99;100382.63;5159826;27;778;-38
2021/09/20 01:45:14;;;;;;;;;;;;;;;28.85;42.88;100382.25;5159435;27;755;-33
2021/09/20 01:47:39;;;;;;;;;;;;;;;28.83;42.46;100381.59;5159219;27;993;-37
2021/09/20 01:50:05;;;;;;;;;;;;;;;28.81;42.72;100381.81;5159648;27;1074;-33
2021/09/20 01:52:30;;;;;;;;;;;;;;;28.76;42.79;100375.34;5144639;27;977;-34
2021/09/20 01:54:56;;;;;;;;;;;;;;;28.80;42.61;100376.59;5120183;27;809;-35
2021/09/20 01:57:23;;;;;;;;;;;;;;;28.68;43.13;100374.50;5138542;27;879;-35
2021/09/20 01:59:49;;;;;;;;;;;;;;;28.79;42.75;100381.19;5138651;27;1972;-39
2021/09/20 02:02:14;;;;;;;;;;;;;;;28.81;42.33;100368.28;5138511;27;736;-35
2021/09/20 02:04:39;;;;;;;;;;;;;;;28.77;42.92;100368.91;5138570;27;834;-35
2021/09/20 02:07:04;;;;;;;;;;;;;;;28.83;42.30;100366.22;5137764;27;957;-34
2021/09/20 02:09:30;;;;;;;;;;;;;;;28.79;42.36;100364.13;5138350;27;858;-34
2021/09/20 02:11:55;;;;;;;;;;;;;;;28.82;42.31;100371.81;5138372;27;799;-39
2021/09/20 02:14:20;;;;;;;;;;;;;;;28.85;41.94;100371.41;5138007;27;851;-35
2021/09/20 02:16:45;;;;;;;;;;;;;;;28.55;43.05;100377.13;5137964;27;814;-36
2021/09/20 02:19:12;;;;;;;;;;;;;;;28.73;42.24;100372.00;5138083;27;1905;-33
2021/09/20 02:21:37;;;;;;;;;;;;;;;28.64;42.82;100370.53;5138032;27;1486;-36
2021/09/20 02:24:02;;;;;;;;;;;;;;;28.68;42.67;100366.38;5138100;27;826;-35
2021/09/20 02:26:30;;;;;;;;;;;;;;;28.76;42.08;100365.34;5138122;27;779;-36
2021/09/20 02:28:56;;;;;;;;;;;;;;;28.64;42.98;100357.00;5138588;27;796;-34
2021/09/20 02:31:21;;;;;;;;;;;;;;;28.69;42.47;100348.28;5137635;27;833;-35
2021/09/20 02:33:46;;;;;;;;;;;;;;;28.79;42.88;100358.69;5137916;27;831;-35
2021/09/20 02:36:12;;;;;;;;;;;;;;;28.80;42.19;100358.50;5136954;27;1009;-39
2021/09/20 02:38:37;;;;;;;;;;;;;;;28.92;42.02;100358.75;5146235;27;1905;-35
2021/09/20 02:41:02;;;;;;;;;;;;;;;28.69;43.19;100354.53;5158631;27;829;-34
2021/09/20 02:43:28;;;;;;;;;;;;;;;28.69;42.54;100359.94;5158726;27;1027;-38
2021/09/20 02:45:56;;;;;;;;;;;;;;;28.75;42.57;100363.69;5157920;27;747;-35
2021/09/20 02:48:22;;;;;;;;;;;;;;;28.69;42.83;100368.06;5158434;27;842;-36
2021/09/20 02:50:47;;;;;;;;;;;;;;;28.77;42.26;100371.59;5158348;27;1403;-36
2021/09/20 02:53:13;;;;;;;;;;;;;;;28.58;43.48;100369.47;5137064;27;1008;-36
2021/09/20 02:55:38;;;;;;;;;;;;;;;28.67;42.74;100364.72;5137111;27;787;-37
2021/09/20 02:58:03;;;;;;;;;;;;;;;28.57;40.77;100373.22;5137583;27;807;-35
2021/09/20 03:00:28;;;;;;;;;;;;;;;28.07;40.10;100366.06;5137151;27;1910;-41
2021/09/20 03:02:54;;;;;;;;;;;;;;;23.57;48.56;100367.56;5137483;27;814;-30
2021/09/20 03:05:19;;;;;;;;;;;;;;;22.37;50.23;100378.28;5137651;27;989;-30
2021/09/20 03:07:44;;;;;;;;;;;;;;;21.63;51.50;100366.06;5136185;27;993;-30
2021/09/20 03:10:09;;;;;;;;;;;;;;;24.28;46.30;100372.31;5137169;27;811;-34
2021/09/20 03:12:35;;;;;;;;;;;;;;;25.90;42.28;100371.84;5137382;27;819;-33
2021/09/20 03:15:00;;;;;;;;;;;;;;;26.65;39.53;100378.25;5136626;27;835;-33
2021/09/20 03:17:25;;;;;;;;;;;;;;;27.08;38.72;100376.66;5136974;27;834;-32
2021/09/20 03:19:51;;;;;;;;;;;;;;;27.29;37.89;100373.16;5137159;27;1906;-31
2021/09/20 03:22:16;;;;;;;;;;;;;;;27.37;37.22;100369.47;5135397;27;1649;-30
2021/09/20 03:24:41;;;;;;;;;;;;;;;27.52;36.21;100361.28;5137124;27;780;-32
2021/09/20 03:27:06;;;;;;;;;;;;;;;27.73;35.41;100368.53;5136899;27;808;-42
2021/09/20 03:29:32;;;;;;;;;;;;;;;27.74;35.53;100372.09;5136814;27;811;-29
2021/09/20 03:31:57;;;;;;;;;;;;;;;27.81;35.09;100374.84;5137032;27;816;-33
2021/09/20 03:34:22;;;;;;;;;;;;;;;27.72;35.59;100377.69;5137293;27;885;-31
2021/09/20 03:36:48;;;;;;;;;;;;;;;27.54;34.61;100371.91;5135842;27;986;-34
2021/09/20 03:39:13;;;;;;;;;;;;;;;27.43;32.92;100374.09;5150390;27;1909;-35
2021/09/20 03:41:38;;;;;;;;;;;;;;;27.28;33.47;100376.06;5157635;27;816;-40
2021/09/20 03:44:04;;;;;;;;;;;;;;;27.07;34.49;100375.84;5157614;27;759;-33
2021/09/20 03:46:29;;;;;;;;;;;;;;;26.41;34.37;100378.38;5156910;27;827;-32
2021/09/20 03:48:54;;;;;;;;;;;;;;;26.39;33.71;100375.00;5156996;27;1187;-33
2021/09/20 03:51:20;;;;;;;;;;;;;;;26.29;32.57;100371.75;5152459;27;1020;-33
2021/09/20 03:53:45;;;;;;;;;;;;;;;25.80;34.43;100376.66;5136456;28;820;-34
2021/09/20 03:56:10;;;;;;;;;;;;;;;25.58;33.60;100364.84;5136364;28;764;-35
2021/09/20 03:58:36;;;;;;;;;;;;;;;25.25;33.62;100363.28;5136353;28;1976;-35
2021/09/20 04:01:01;;;;;;;;;;;;;;;25.15;34.61;100375.13;5136375;28;739;-34
2021/09/20 04:03:26;;;;;;;;;;;;;;;26.06;33.99;100372.66;5118022;28;1404;-39
2021/09/20 04:05:52;;;;;;;;;;;;;;;26.76;33.25;100369.66;5144493;27;827;-46
2021/09/20 04:08:17;;;;;;;;;;;;;;;26.75;33.05;100373.41;5145295;27;1004;-44
2021/09/20 04:10:43;;;;;;;;;;;;;;;26.64;32.86;100377.41;5136689;28;841;-36
2021/09/20 04:13:08;;;;;;;;;;;;;;;26.88;33.05;100378.09;5141253;27;825;-41
2021/09/20 04:15:35;;;;;;;;;;;;;;;27.14;31.54;100375.91;5156650;27;834;-38
2021/09/20 04:18:00;;;;;;;;;;;;;;;26.91;32.55;100382.28;5156573;27;811;-43
2021/09/20 04:20:26;;;;;;;;;;;;;;;26.64;33.46;100382.78;5157341;27;1898;-40
2021/09/20 04:22:51;;;;;;;;;;;;;;;26.53;32.40;100386.81;5137093;27;1616;-33
2021/09/20 04:25:16;;;;;;;;;;;;;;;26.37;33.00;100392.41;5136352;28;782;-43
2021/09/20 04:27:42;;;;;;;;;;;;;;;26.46;32.55;100399.38;5136044;28;855;-42
2021/09/20 04:30:07;;;;;;;;;;;;;;;26.88;32.49;100404.25;5136207;28;778;-40
2021/09/20 04:32:35;;;;;;;;;;;;;;;27.04;33.37;100416.72;5135925;28;879;-37
2021/09/20 04:35:01;;;;;;;;;;;;;;;27.17;32.03;100421.44;5136644;28;874;-38
2021/09/20 04:37:26;;;;;;;;;;;;;;;26.86;32.53;100427.91;5135075;28;961;-40
2021/09/20 04:39:51;;;;;;;;;;;;;;;27.09;33.49;100424.25;5155336;27;1897;-37
2021/09/20 04:42:16;;;;;;;;;;;;;;;27.07;32.02;100426.28;5157280;27;794;-37
2021/09/20 04:44:42;;;;;;;;;;;;;;;26.76;33.84;100422.78;5156610;27;816;-35
2021/09/20 04:47:07;;;;;;;;;;;;;;;26.81;32.10;100428.44;5157288;27;747;-36
2021/09/20 04:49:33;;;;;;;;;;;;;;;26.65;32.00;100432.22;5156204;27;1008;-39
2021/09/20 04:51:58;;;;;;;;;;;;;;;26.64;34.18;100438.63;5145669;27;981;-39
2021/09/20 04:54:24;;;;;;;;;;;;;;;26.97;32.04;100443.59;5135766;28;767;-38
2021/09/20 04:56:49;;;;;;;;;;;;;;;26.89;33.66;100458.03;5136173;28;829;-42
2021/09/20 04:59:14;;;;;;;;;;;;;;;27.23;32.36;100452.22;5136397;27;1975;-38
2021/09/20 05:01:40;;;;;;;;;;;;;;;27.04;32.98;100450.97;5139884;27;789;-38
2021/09/20 05:04:05;;;;;;;;;;;;;;;26.97;35.27;100440.06;5139904;27;722;-36
2021/09/20 05:06:30;;;;;;;;;;;;;;;26.84;31.91;100443.44;5138396;27;922;-39
2021/09/20 05:08:55;;;;;;;;;;;;;;;26.99;31.55;100436.13;5139683;27;767;-44
2021/09/20 05:11:21;;;;;;;;;;;;;;;27.14;31.06;100446.94;5139647;27;855;-43
2021/09/20 05:13:46;;;;;;;;;;;;;;;26.81;32.34;100452.75;5139302;27;742;-37
2021/09/20 05:16:11;;;;;;;;;;;;;;;26.89;33.56;100459.91;5139602;27;787;-47
2021/09/20 05:18:37;;;;;;;;;;;;;;;27.37;30.70;100469.41;5138935;27;1964;-36
2021/09/20 05:21:02;;;;;;;;;;;;;;;27.09;32.06;100465.56;5138366;27;1573;-33
2021/09/20 05:23:27;;;;;;;;;;;;;;;27.55;31.04;100460.88;5139203;27;927;-33
2021/09/20 05:25:53;;;;;;;;;;;;;;;27.37;31.00;100464.00;5139439;27;720;-35
2021/09/20 05:28:18;;;;;;;;;;;;;;;26.97;33.89;100461.66;5138562;27;886;-38
2021/09/20 05:30:43;;;;;;;;;;;;;;;27.60;31.88;100462.97;5139270;27;852;-36
2021/09/20 05:33:09;;;;;;;;;;;;;;;26.87;32.85;100460.09;5139073;27;751;-40
2021/09/20 05:35:34;;;;;;;;;;;;;;;26.59;34.17;100463.44;5138610;27;807;-38
2021/09/20 05:37:59;;;;;;;;;;;;;;;26.40;34.32;100463.00;5142172;27;1064;-46
2021/09/20 05:40:24;;;;;;;;;;;;;;;26.63;35.08;100459.38;5159316;27;1905;-44
2021/09/20 05:42:55;;;;;;;;;;;;;;;27.30;33.23;100458.53;5159521;27;994;-46
2021/09/20 05:45:21;;;;;;;;;;;;;;;25.28;34.26;100457.13;5159744;27;798;-45
2021/09/20 05:47:46;;;;;;;;;;;;;;;21.35;46.49;100454.47;5159459;27;811;-38
2021/09/20 05:50:11;;;;;;;;;;;;;;;24.24;37.60;100448.09;5159557;27;1028;-35
2021/09/20 05:52:38;;;;;;;;;;;;;;;25.06;37.31;100447.00;5143720;27;1004;-42
2021/09/20 05:55:03;;;;;;;;;;;;;;;25.74;32.83;100453.63;5139133;27;779;-40
2021/09/20 05:57:29;;;;;;;;;;;;;;;26.19;32.89;100462.84;5138338;27;879;-39
2021/09/20 05:59:54;;;;;;;;;;;;;;;26.48;33.36;100456.69;5138252;27;1905;-32
2021/09/20 06:02:19;;;;;;;;;;;;;;;26.68;33.08;100466.06;5138780;27;767;-41
2021/09/20 06:04:45;;;;;;;;;;;;;;;22.62;40.79;100456.19;5138706;27;870;-37
2021/09/20 06:07:10;;;;;;;;;;;;;;;17.61;49.96;100447.50;5137734;27;1005;-41
2021/09/20 06:09:35;;;;;;;;;;;;;;;19.21;52.46;100442.94;5138211;27;730;-34
2021/09/20 06:12:04;;;;;;;;;;;;;;;23.22;39.67;100438.28;5129834;27;853;-41
2021/09/20 06:14:29;;;;;;;;;;;;;;;25.10;36.05;100436.72;5137955;27;790;-39
2021/09/20 06:16:54;;;;;;;;;;;;;;;23.50;38.95;100441.72;5138368;27;797;-38
2021/09/20 06:19:20;;;;;;;;;;;;;;;19.60;42.24;100441.31;5138241;27;1976;-39
2021/09/20 06:21:45;;;;;;;;;;;;;;;17.76;42.51;100434.75;5136821;27;1585;-36
2021/09/20 06:24:10;;;;;;;;;;;;;;;16.90;42.63;100438.91;5138079;27;790;-36
2021/09/20 06:26:36;;;;;;;;;;;;;;;16.43;43.44;100442.53;5137961;27;863;-36
2021/09/20 06:29:01;;;;;;;;;;;;;;;17.13;46.84;100441.59;5137930;27;775;-38
2021/09/20 06:31:26;;;;;;;;;;;;;;;17.44;48.67;100447.06;5138121;27;735;-37
2021/09/20 06:33:52;;;;;;;;;;;;;;;17.57;50.31;100448.69;5137657;27;833;-40
2021/09/20 06:36:17;;;;;;;;;;;;;;;17.86;50.96;100448.97;5136621;27;981;-37
2021/09/20 06:38:42;;;;;;;;;;;;;;;17.90;51.30;100452.19;5147469;27;1905;-40
2021/09/20 06:41:07;;;;;;;;;;;;;;;17.96;52.05;100458.84;5158615;27;808;-37
2021/09/20 06:43:33;;;;;;;;;;;;;;;17.89;52.65;100462.97;5158039;27;858;-42
2021/09/20 06:45:58;;;;;;;;;;;;;;;17.92;52.85;100460.91;5158568;27;786;-38
2021/09/20 06:48:23;;;;;;;;;;;;;;;17.84;53.67;100463.34;5158180;27;882;-38
2021/09/20 06:50:48;;;;;;;;;;;;;;;17.82;53.75;100460.81;5157887;27;1089;-40
2021/09/20 06:53:14;;;;;;;;;;;;;;;17.89;53.93;100465.63;5137318;27;937;-38
2021/09/20 06:55:39;;;;;;;;;;;;;;;17.88;54.40;100454.16;5137582;27;842;-40
2021/09/20 06:58:04;;;;;;;;;;;;;;;17.87;54.71;100457.78;5137540;27;830;-39
2021/09/20 07:00:30;;;;;;;;;;;;;;;17.93;54.79;100457.28;5137517;27;1905;-38
2021/09/20 07:02:55;;;;;;;;;;;;;;;18.01;54.96;100466.44;5137181;27;812;-40
2021/09/20 07:05:21;;;;;;;;;;;;;;;18.11;54.54;100468.19;5137361;27;790;-39
2021/09/20 07:07:46;;;;;;;;;;;;;;;17.97;55.15;100465.84;5137153;27;993;-36
2021/09/20 07:10:15;;;;;;;;;;;;;;;17.88;55.25;100472.78;5137210;27;890;-37
2021/09/20 07:12:41;;;;;;;;;;;;;;;17.93;55.16;100472.41;5137460;27;779;-39
2021/09/20 07:15:06;;;;;;;;;;;;;;;17.83;55.19;100467.00;5137432;27;867;-37
2021/09/20 07:17:32;;;;;;;;;;;;;;;17.92;54.45;100455.59;5137198;27;787;-36
2021/09/20 07:19:57;;;;;;;;;;;;;;;17.92;54.39;100455.59;5117721;27;1894;-37
2021/09/20 07:22:22;;;;;;;;;;;;;;;17.91;54.04;100453.91;5135815;27;1605;-41
2021/09/20 07:24:48;;;;;;;;;;;;;;;17.93;54.01;100457.28;5136771;27;1459;-40
2021/09/20 07:27:13;;;;;;;;;;;;;;;20.97;47.30;100455.38;5136886;27;811;-40
2021/09/20 07:29:38;;;;;;;;;;;;;;;23.05;41.43;100453.50;5136981;27;842;-38
2021/09/20 07:32:04;;;;;;;;;;;;;;;24.01;38.83;100459.50;5137117;27;740;-40
2021/09/20 07:34:29;;;;;;;;;;;;;;;24.52;37.57;100453.06;5136829;27;779;-35
2021/09/20 07:36:54;;;;;;;;;;;;;;;24.86;36.64;100456.50;5136344;27;938;-34
2021/09/20 07:39:20;;;;;;;;;;;;;;;25.02;36.54;100458.28;5152055;27;1901;-35
2021/09/20 07:41:45;;;;;;;;;;;;;;;25.13;36.84;100455.19;5157020;27;771;-37
2021/09/20 07:44:10;;;;;;;;;;;;;;;25.42;35.93;100461.75;5157594;27;834;-36
2021/09/20 07:46:37;;;;;;;;;;;;;;;25.64;35.27;100459.28;5154176;27;1168;-33
2021/09/20 07:49:02;;;;;;;;;;;;;;;25.85;34.64;100463.16;5133833;27;1255;-34
2021/09/20 07:51:27;;;;;;;;;;;;;;;26.06;34.10;100466.19;5139031;27;1169;-33
2021/09/20 07:53:53;;;;;;;;;;;;;;;26.18;33.68;100470.09;5136800;27;794;-35
2021/09/20 07:56:18;;;;;;;;;;;;;;;26.24;35.47;100473.94;5136110;28;827;-35
2021/09/20 07:58:43;;;;;;;;;;;;;;;26.36;33.69;100472.47;5136894;28;1910;-40
2021/09/20 08:01:09;;;;;;;;;;;;;;;26.41;33.44;100470.06;5136692;28;741;-39
2021/09/20 08:03:34;;;;;;;;;;;;;;;26.62;33.61;100464.97;5136499;28;855;-42
2021/09/20 08:05:59;;;;;;;;;;;;;;;26.63;33.52;100470.16;5135993;28;1017;-38
2021/09/20 08:08:25;;;;;;;;;;;;;;;26.72;33.47;100460.13;5136872;28;997;-35
2021/09/20 08:10:51;;;;;;;;;;;;;;;26.80;33.03;100461.03;5135953;28;989;-35
2021/09/20 08:13:16;;;;;;;;;;;;;;;26.72;33.53;100456.56;5136357;28;1374;-35
2021/09/20 08:15:42;;;;;;;;;;;;;;;26.85;33.26;100455.91;5136685;28;878;-36
2021/09/20 08:18:07;;;;;;;;;;;;;;;26.41;33.12;100370.28;5136333;28;525;-34
2021/09/20 08:20:33;;;;;;;;;;;;;;;27.04;33.15;100461.78;5136726;28;1905;-38
2021/09/20 08:22:58;;;;;;;;;;;;;;;27.15;33.02;100458.56;5135372;28;1593;-36
2021/09/20 08:25:23;;;;;;;;;;;;;;;27.00;33.37;100455.88;5136208;28;830;-34
2021/09/20 08:27:49;;;;;;;;;;;;;;;27.22;33.41;100459.50;5135769;28;759;-41
2021/09/20 08:30:14;;;;;;;;;;;;;;;27.41;32.79;100450.97;5135468;28;1091;-36
2021/09/20 08:32:39;;;;;;;;;;;;;;;27.44;32.75;100440.59;5136062;28;751;-39
2021/09/20 08:35:05;;;;;;;;;;;;;;;27.57;32.45;100447.16;5138893;27;895;-36
2021/09/20 08:37:30;;;;;;;;;;;;;;;27.68;32.25;100440.38;5133168;27;993;-40
2021/09/20 08:39:55;;;;;;;;;;;;;;;27.65;32.16;100435.38;5160545;27;1965;-35
2021/09/20 08:42:21;;;;;;;;;;;;;;;27.74;31.88;100432.38;5161153;27;810;-43
2021/09/20 08:44:46;;;;;;;;;;;;;;;27.46;32.73;100445.81;5156881;27;1054;-40
2021/09/20 08:47:15;;;;;;;;;;;;;;;27.67;32.05;100446.81;5140157;27;907;-36
2021/09/20 08:49:40;;;;;;;;;;;;;;;27.71;32.24;100440.06;5149974;27;1154;-42
2021/09/20 08:52:05;;;;;;;;;;;;;;;27.76;31.86;100440.28;5159169;27;1026;-43
2021/09/20 08:54:31;;;;;;;;;;;;;;;27.75;31.42;100454.84;5160383;27;770;-39
2021/09/20 08:56:56;;;;;;;;;;;;;;;27.73;31.34;100444.22;5160208;27;925;-35
2021/09/20 08:59:22;;;;;;;;;;;;;;;27.56;31.63;100445.50;5160370;27;1921;-35
2021/09/20 09:01:49;;;;;;;;;;;;;;;27.16;31.09;100349.53;5159613;27;987;-45
2021/09/20 09:04:39;;;;;;;;;;;;;;;27.59;31.48;100450.50;5160412;27;751;-34
2021/09/20 09:07:05;;;;;;;;;;;;;;;27.51;31.18;100448.75;5150084;27;1479;-36
2021/09/20 09:09:35;;;;;;;;;;;;;;;27.62;31.11;100439.31;5160377;27;807;-42
2021/09/20 09:12:10;;;;;;;;;;;;;;;27.51;31.30;100437.94;5160178;27;743;-40
2021/09/20 09:14:39;;;;;;;;;;;;;;;27.25;32.25;100429.41;5160204;27;854;-36
2021/09/20 09:17:08;;;;;;;;;;;;;;;27.39;31.95;100426.84;5160385;27;862;-35
2021/09/20 09:19:35;;;;;;;;;;;;;;;27.50;31.25;100430.88;5159866;27;1929;-41
2021/09/20 09:22:01;;;;;;;;;;;;;;;25.94;34.54;100426.22;5140706;27;1620;-33
2021/09/20 09:24:27;;;;;;;;;;;;;;;26.17;33.27;100431.50;5160298;27;767;-32
2021/09/20 09:26:56;;;;;;;;;;;;;;;26.33;33.17;100435.09;5159799;27;707;-32
2021/09/20 09:29:22;;;;;;;;;;;;;;;26.53;34.08;100435.38;5141489;27;1219;-30
2021/09/20 09:31:51;;;;;;;;;;;;;;;26.73;33.39;100432.09;5160564;27;818;-31
2021/09/20 09:34:23;;;;;;;;;;;;;;;26.53;33.26;100437.22;5159678;27;744;-25
2021/09/20 09:36:49;;;;;;;;;;;;;;;26.44;33.79;100428.41;5159220;27;965;-33
2021/09/20 09:39:14;;;;;;;;;;;;;;;27.35;32.43;100429.09;5160087;27;1905;-32
2021/09/20 09:41:41;;;;;;;;;;;;;;;27.87;29.54;100428.13;5141095;27;1128;-28
2021/09/20 09:44:07;;;;;;;;;;;;;;;28.01;29.80;100429.03;5159061;27;1244;-35
2021/09/20 09:46:36;;;;;;;;;;;;;;;27.98;29.27;100422.16;5159350;27;827;-34
2021/09/20 09:49:09;;;;;;;;;;;;;;;28.28;29.38;100428.41;5158964;27;1256;-43
2021/09/20 09:51:53;;;;;;;;;;;;;;;28.13;27.77;100425.81;5159846;27;965;-32
2021/09/20 09:54:19;;;;;;;;;;;;;;;27.80;29.32;100419.94;5159511;27;834;-33
2021/09/20 09:56:44;;;;;;;;;;;;;;;27.17;29.36;100418.72;5141046;27;1426;-36
2021/09/20 09:59:09;;;;;;;;;;;;;;;27.14;29.96;100411.00;5159909;27;1913;-32
2021/09/20 10:01:35;;;;;;;;;;;;;;;27.65;28.31;100409.19;5159549;27;925;-34
2021/09/20 10:04:01;;;;;;;;;;;;;;;27.48;28.42;100405.91;5158953;27;836;-39
2021/09/20 10:06:26;;;;;;;;;;;;;;;27.91;27.90;100409.63;5158784;27;946;-35
2021/09/20 10:08:52;;;;;;;;;;;;;;;27.71;28.35;100402.22;5159451;27;763;-32
2021/09/20 10:11:17;;;;;;;;;;;;;;;27.80;28.22;100397.47;5159412;27;806;-47
2021/09/20 10:13:42;;;;;;;;;;;;;;;28.08;27.24;100389.38;5159063;27;790;-36
2021/09/20 10:16:07;;;;;;;;;;;;;;;28.15;27.33;100394.81;5140798;27;842;-32
2021/09/20 10:18:33;;;;;;;;;;;;;;;28.30;26.60;100388.44;5140755;27;759;-33
2021/09/20 10:20:59;;;;;;;;;;;;;;;26.95;28.08;100380.03;5140666;27;2040;-32
2021/09/20 10:23:24;;;;;;;;;;;;;;;27.90;27.35;100384.47;5159039;27;934;-32
2021/09/20 10:25:50;;;;;;;;;;;;;;;28.18;26.64;100378.19;5158784;27;933;-33
2021/09/20 10:28:15;;;;;;;;;;;;;;;28.17;26.37;100371.13;5139612;27;850;-32
2021/09/20 10:30:43;;;;;;;;;;;;;;;28.19;26.51;100371.75;5140249;27;814;-32
2021/09/20 10:48:32;;;;;;;;;;;;;;;28.20;26.47;100353.66;5153198;27;891;-34
2021/09/20 10:51:17;;;;;;;;;;;;;;;28.23;26.38;100350.53;5158330;27;1197;-44
2021/09/20 10:53:42;;;;;;;;;;;;;;;28.07;26.50;100344.44;5138158;27;806;-40
2021/09/20 10:56:44;;;;;;;;;;;;;;;28.07;26.79;100340.91;5168448;27;1579;-35
2021/09/20 10:59:09;;;;;;;;;;;;;;;28.20;26.46;100346.38;5159005;27;1974;-38
2021/09/20 11:01:35;;;;;;;;;;;;;;;28.32;26.33;100340.41;5169552;27;1355;-33
2021/09/20 11:04:04;;;;;;;;;;;;;;;28.36;26.54;100342.53;5179035;27;767;-43
2021/09/20 11:06:31;;;;;;;;;;;;;;;28.46;26.86;100336.72;5160520;27;1519;-35
2021/09/20 11:08:59;;;;;;;;;;;;;;;28.52;26.56;100335.09;5161512;27;800;-46
2021/09/20 11:11:37;;;;;;;;;;;;;;;28.53;27.05;100334.06;5178578;27;964;-30
2021/09/20 11:14:21;;;;;;;;;;;;;;;28.51;26.97;100332.59;5174562;27;819;-43
2021/09/20 11:16:59;;;;;;;;;;;;;;;28.51;27.18;100321.78;5158124;27;750;-40
2021/09/20 11:19:25;;;;;;;;;;;;;;;28.47;26.86;100315.94;5157279;27;1969;-38
2021/09/20 11:22:05;;;;;;;;;;;;;;;28.43;26.73;100320.06;5157514;27;1451;-41
2021/09/20 11:24:30;;;;;;;;;;;;;;;28.42;26.96;100310.28;5157556;27;788;-32
2021/09/20 11:26:56;;;;;;;;;;;;;;;28.52;26.71;100318.88;5158003;27;786;-37
2021/09/20 11:29:24;;;;;;;;;;;;;;;28.62;27.30;100312.22;5158414;27;778;-41
2021/09/20 11:31:50;;;;;;;;;;;;;;;28.54;26.78;100308.69;5157784;27;782;-40
2021/09/20 11:34:27;;;;;;;;;;;;;;;28.54;26.70;100305.13;5157463;27;803;-31
2021/09/20 11:36:53;;;;;;;;;;;;;;;28.48;27.29;100298.66;5157509;27;1000;-42
2021/09/20 11:39:18;;;;;;;;;;;;;;;28.55;28.12;100294.09;5157300;27;1893;-35
2021/09/20 11:41:55;;;;;;;;;;;;;;;28.61;29.26;100303.28;5173310;27;1545;-39
2021/09/20 11:44:25;;;;;;;;;;;;;;;28.59;31.06;100275.59;5166988;27;754;-41
2021/09/20 11:46:50;;;;;;;;;;;;;;;28.57;31.33;100288.47;5178001;27;810;-41
2021/09/20 11:49:15;;;;;;;;;;;;;;;28.77;30.90;100293.09;5178533;27;1083;-39
2021/09/20 11:51:41;;;;;;;;;;;;;;;28.75;31.14;100290.59;5152926;27;1369;-39
2021/09/20 11:54:06;;;;;;;;;;;;;;;28.79;30.83;100291.88;5157378;27;818;-39
2021/09/20 11:56:32;;;;;;;;;;;;;;;28.75;31.52;100287.91;5157405;27;819;-40
2021/09/20 11:58:59;;;;;;;;;;;;;;;26.06;33.88;100291.00;5156840;27;1909;-37
2021/09/20 12:01:25;;;;;;;;;;;;;;;24.61;35.96;100292.53;5151565;27;1252;-42
2021/09/20 12:03:53;;;;;;;;;;;;;;;24.11;36.89;100282.81;5157895;27;856;-43
2021/09/20 12:06:25;;;;;;;;;;;;;;;23.55;38.34;100280.97;5156786;27;977;-36
2021/09/20 12:08:51;;;;;;;;;;;;;;;23.32;38.50;100276.28;5159470;27;762;-34
2021/09/20 12:11:20;;;;;;;;;;;;;;;23.31;39.00;100279.94;5159463;27;940;-42
2021/09/20 12:13:45;;;;;;;;;;;;;;;23.44;39.80;100274.13;5159734;27;1399;-29
2021/09/20 12:16:11;;;;;;;;;;;;;;;23.42;40.46;100270.75;5161324;27;994;-45
2021/09/20 12:18:36;;;;;;;;;;;;;;;23.20;40.75;100265.88;5163831;27;798;-46
2021/09/20 12:21:03;;;;;;;;;;;;;;;23.30;40.57;100262.19;5157639;27;1901;-33
2021/09/20 12:23:32;;;;;;;;;;;;;;;22.96;41.57;100255.97;5159951;27;933;-30
2021/09/20 12:25:58;;;;;;;;;;;;;;;22.89;41.95;100255.78;5160855;27;747;-46
2021/09/20 12:28:23;;;;;;;;;;;;;;;22.90;41.40;100259.31;5161443;27;758;-31
2021/09/20 12:30:56;;;;;;;;;;;;;;;22.57;42.21;100262.78;5160984;27;842;-39
2021/09/20 12:33:21;;;;;;;;;;;;;;;22.14;43.40;100259.13;5161065;27;834;-35
2021/09/20 12:35:47;;;;;;;;;;;;;;;22.31;42.76;100248.47;5159983;27;840;-32
2021/09/20 12:38:18;;;;;;;;;;;;;;;22.41;42.86;100250.16;5161007;27;989;-38
2021/09/20 12:40:43;;;;;;;;;;;;;;;22.36;42.73;100243.44;5160718;27;1942;-38
2021/09/20 12:43:11;;;;;;;;;;;;;;;22.27;42.93;100252.47;5160755;27;778;-42
2021/09/20 12:45:41;;;;;;;;;;;;;;;22.11;43.18;100251.41;5160820;27;814;-34
2021/09/20 12:48:07;;;;;;;;;;;;;;;22.47;45.23;100250.34;5160811;27;760;-44
2021/09/20 12:50:39;;;;;;;;;;;;;;;24.88;37.48;100249.97;5160308;27;1176;-33
2021/09/20 12:53:04;;;;;;;;;;;;;;;25.98;32.93;100249.63;5160540;27;952;-34
2021/09/20 12:55:35;;;;;;;;;;;;;;;26.38;31.48;100245.75;5159901;27;830;-33
2021/09/20 12:58:01;;;;;;;;;;;;;;;26.65;31.88;100237.97;5160534;27;843;-45
2021/09/20 13:00:32;;;;;;;;;;;;;;;26.92;31.43;100245.47;5160398;27;1906;-42
2021/09/20 13:03:05;;;;;;;;;;;;;;;24.14;38.79;100231.41;5147537;27;1343;-40